createdAt,value
2022-11-20T00:00:28.285Z,20
2022-11-20T00:02:58.714Z,20
2022-11-20T00:05:29.007Z,16
2022-11-20T00:08:00.047Z,17
2022-11-20T00:10:30.754Z,16
2022-11-20T00:13:01.517Z,19
2022-11-20T00:15:31.793Z,15
2022-11-20T00:18:02.217Z,12
2022-11-20T00:20:33.017Z,16
2022-11-20T00:23:03.534Z,14
2022-11-20T00:25:35.187Z,18
2022-11-20T00:28:05.404Z,16
2022-11-20T00:30:36.372Z,14
2022-11-20T00:33:07.068Z,13
2022-11-20T00:35:37.726Z,13
2022-11-20T00:38:08.723Z,16
2022-11-20T00:40:39.803Z,14
2022-11-20T00:43:10.370Z,16
2022-11-20T00:45:41.138Z,19
2022-11-20T00:48:11.689Z,23
2022-11-20T00:50:43.120Z,20
2022-11-20T00:53:13.540Z,21
2022-11-20T00:55:44.288Z,23
2022-11-20T00:58:15.438Z,24
2022-11-20T01:00:46.235Z,21
2022-11-20T01:03:17.854Z,20
2022-11-20T01:05:46.559Z,17
2022-11-20T01:08:17.544Z,20
2022-11-20T01:10:48.736Z,16
2022-11-20T01:13:24.409Z,16
2022-11-20T01:15:51.081Z,12
2022-11-20T01:18:21.825Z,12
2022-11-20T01:20:52.726Z,16
2022-11-20T01:23:23.495Z,8
2022-11-20T01:25:54.255Z,11
2022-11-20T01:28:24.970Z,12
2022-11-20T01:30:56.013Z,24
2022-11-20T01:33:26.729Z,20
2022-11-20T01:35:57.174Z,16
2022-11-20T01:38:28.127Z,21
2022-11-20T01:40:59.786Z,26
2022-11-20T01:43:31.195Z,20
2022-11-20T01:46:03.323Z,18
2022-11-20T01:48:34.239Z,23
2022-11-20T01:51:05.780Z,18
2022-11-20T01:53:36.229Z,37
2022-11-20T01:56:07.407Z,35
2022-11-20T01:58:37.788Z,37
2022-11-20T02:01:08.799Z,27
2022-11-20T02:03:39.653Z,24
2022-11-20T02:06:14.297Z,26
2022-11-20T02:08:45.422Z,20
2022-11-20T02:11:20.759Z,18
2022-11-20T02:13:52.369Z,32
2022-11-20T02:16:22.671Z,32
2022-11-20T02:18:54.442Z,24
2022-11-20T02:21:25.245Z,28
2022-11-20T02:23:59.746Z,24
2022-11-20T02:26:30.078Z,24
2022-11-20T02:29:03.739Z,32
2022-11-20T02:31:34.989Z,28
2022-11-20T02:34:06.686Z,32
2022-11-20T02:36:40.637Z,40
2022-11-20T02:39:12.953Z,36
2022-11-20T02:41:43.720Z,28
2022-11-20T02:44:14.548Z,32
2022-11-20T02:46:46.010Z,32
2022-11-20T02:49:16.743Z,28
2022-11-20T02:51:47.609Z,26
2022-11-20T02:54:18.919Z,32
2022-11-20T02:56:50.560Z,36
2022-11-20T02:59:20.668Z,36
2022-11-20T03:01:52.564Z,34
2022-11-20T03:04:23.343Z,36
2022-11-20T03:06:54.822Z,36
2022-11-20T03:09:26.317Z,32
2022-11-20T03:11:57.263Z,36
2022-11-20T03:14:28.640Z,36
2022-11-20T03:16:59.761Z,36
2022-11-20T03:19:31.478Z,40
2022-11-20T03:22:02.640Z,36
2022-11-20T03:24:34.026Z,37
2022-11-20T03:27:05.586Z,39
2022-11-20T03:29:36.806Z,36
2022-11-20T03:32:08.144Z,39
2022-11-20T03:34:39.010Z,36
2022-11-20T03:37:10.644Z,36
2022-11-20T03:39:41.799Z,35
2022-11-20T03:42:13.103Z,34
2022-11-20T03:44:44.628Z,38
2022-11-20T03:47:15.594Z,34
2022-11-20T03:49:47.103Z,34
2022-11-20T03:52:18.285Z,34
2022-11-20T03:54:49.740Z,36
2022-11-20T03:57:20.935Z,36
2022-11-20T03:59:52.580Z,36
2022-11-20T04:02:23.782Z,36
2022-11-20T04:04:55.048Z,35
2022-11-20T04:07:26.646Z,32
2022-11-20T04:09:58.004Z,36
2022-11-20T04:12:29.478Z,32
2022-11-20T04:15:00.872Z,32
2022-11-20T04:17:31.924Z,30
2022-11-20T04:20:03.290Z,33
2022-11-20T04:22:32.946Z,39
2022-11-20T04:25:04.031Z,37
2022-11-20T04:27:35.270Z,40
2022-11-20T04:30:06.850Z,36
2022-11-20T04:32:37.868Z,39
2022-11-20T04:35:08.932Z,40
2022-11-20T04:37:40.007Z,42
2022-11-20T04:40:11.482Z,36
2022-11-20T04:42:43.205Z,40
2022-11-20T04:45:14.897Z,40
2022-11-20T04:47:46.102Z,38
2022-11-20T04:50:17.569Z,41
2022-11-20T04:52:49.083Z,36
2022-11-20T04:55:20.304Z,36
2022-11-20T04:57:51.477Z,32
2022-11-20T05:00:22.514Z,41
2022-11-20T05:02:53.849Z,36
2022-11-20T05:05:24.471Z,32
2022-11-20T05:07:55.245Z,36
2022-11-20T05:10:25.802Z,40
2022-11-20T05:12:57.186Z,40
2022-11-20T05:15:34.141Z,40
2022-11-20T05:18:05.146Z,40
2022-11-20T05:20:36.428Z,39
2022-11-20T05:23:07.539Z,43
2022-11-20T05:25:38.883Z,36
2022-11-20T05:28:09.828Z,40
2022-11-20T05:30:41.609Z,44
2022-11-20T05:33:13.087Z,40
2022-11-20T05:35:44.203Z,40
2022-11-20T05:38:15.864Z,38
2022-11-20T05:40:47.168Z,44
2022-11-20T05:43:18.670Z,43
2022-11-20T05:45:50.204Z,43
2022-11-20T05:48:21.044Z,41
2022-11-20T05:50:52.390Z,41
2022-11-20T05:53:24.203Z,40
2022-11-20T05:55:54.427Z,40
2022-11-20T05:58:25.327Z,40
2022-11-20T06:00:56.627Z,41
2022-11-20T06:03:27.970Z,40
2022-11-20T06:05:58.815Z,40
2022-11-20T06:08:29.810Z,44
2022-11-20T06:11:00.387Z,40
2022-11-20T06:13:30.820Z,40
2022-11-20T06:16:01.331Z,44
2022-11-20T06:18:32.829Z,40
2022-11-20T06:21:02.965Z,42
2022-11-20T06:23:34.176Z,40
2022-11-20T06:26:05.124Z,42
2022-11-20T06:28:36.288Z,42
2022-11-20T06:31:07.382Z,42
2022-11-20T06:33:41.205Z,42
2022-11-20T06:36:16.766Z,38
2022-11-20T06:38:48.232Z,40
2022-11-20T06:41:19.765Z,40
2022-11-20T06:43:59.646Z,38
2022-11-20T06:46:31.251Z,40
2022-11-20T06:49:02.095Z,41
2022-11-20T06:51:31.039Z,36
2022-11-20T06:54:05.538Z,41
2022-11-20T06:56:36.476Z,43
2022-11-20T06:59:07.750Z,36
2022-11-20T07:01:38.454Z,36
2022-11-20T07:04:09.302Z,36
2022-11-20T07:06:40.480Z,36
2022-11-20T07:09:12.940Z,34
2022-11-20T07:11:42.008Z,37
2022-11-20T07:14:13.315Z,36
2022-11-20T07:16:44.240Z,39
2022-11-20T07:19:15.621Z,40
2022-11-20T07:21:46.229Z,40
2022-11-20T07:24:17.275Z,36
2022-11-20T07:26:47.938Z,39
2022-11-20T07:29:18.872Z,37
2022-11-20T07:31:50.808Z,36
2022-11-20T07:34:21.644Z,36
2022-11-20T07:36:52.940Z,39
2022-11-20T07:39:23.629Z,40
2022-11-20T07:41:54.460Z,36
2022-11-20T07:44:24.642Z,36
2022-11-20T07:46:55.262Z,56
2022-11-20T07:49:26.401Z,37
2022-11-20T07:52:00.462Z,40
2022-11-20T07:54:27.570Z,36
2022-11-20T07:56:58.906Z,35
2022-11-20T07:59:29.860Z,39
2022-11-20T08:02:00.934Z,38
2022-11-20T08:04:31.428Z,30
2022-11-20T08:07:06.106Z,35
2022-11-20T08:09:37.107Z,28
2022-11-20T08:12:06.164Z,62
2022-11-20T08:14:37.512Z,43
2022-11-20T08:17:08.182Z,24
2022-11-20T08:19:38.893Z,25
2022-11-20T08:22:09.423Z,24
2022-11-20T08:24:40.088Z,36
2022-11-20T08:27:09.204Z,36
2022-11-20T08:29:43.557Z,36
2022-11-20T08:32:14.356Z,29
2022-11-20T08:34:46.066Z,25
2022-11-20T08:37:17.509Z,32
2022-11-20T08:39:46.694Z,32
2022-11-20T08:42:18.087Z,33
2022-11-20T08:44:49.405Z,28
2022-11-20T08:47:20.549Z,27
2022-11-20T08:49:53.029Z,28
2022-11-20T08:52:24.537Z,28
2022-11-20T08:54:55.690Z,33
2022-11-20T08:57:26.995Z,37
2022-11-20T09:00:05.832Z,37
2022-11-20T09:02:30.282Z,56
2022-11-20T09:05:01.262Z,66
2022-11-20T09:07:32.480Z,40
2022-11-20T09:10:22.917Z,51
2022-11-20T09:12:35.299Z,36
2022-11-20T09:15:07.039Z,34
2022-11-20T09:17:38.104Z,44
2022-11-20T09:20:09.753Z,37
2022-11-20T09:22:41.182Z,36
2022-11-20T09:25:14.709Z,35
2022-11-20T09:27:45.596Z,32
2022-11-20T09:30:17.389Z,62
2022-11-20T09:32:49.153Z,40
2022-11-20T09:35:20.415Z,36
2022-11-20T09:37:51.349Z,32
2022-11-20T09:40:22.794Z,36
2022-11-20T09:42:54.037Z,43
2022-11-20T09:45:25.420Z,40
2022-11-20T09:47:56.450Z,32
2022-11-20T09:50:28.348Z,34
2022-11-20T09:52:59.652Z,36
2022-11-20T09:55:31.717Z,31
2022-11-20T09:58:03.983Z,37
2022-11-20T10:00:35.720Z,37
2022-11-20T10:03:07.071Z,33
2022-11-20T10:05:38.231Z,39
2022-11-20T10:08:10.038Z,40
2022-11-20T10:10:43.903Z,35
2022-11-20T10:13:13.359Z,39
2022-11-20T10:15:45.137Z,36
2022-11-20T10:18:16.727Z,35
2022-11-20T10:20:48.400Z,37
2022-11-20T10:23:24.396Z,36
2022-11-20T10:25:51.171Z,34
2022-11-20T10:28:22.435Z,36
2022-11-20T10:30:54.363Z,36
2022-11-20T10:33:25.050Z,40
2022-11-20T10:35:58.119Z,43
2022-11-20T10:38:29.957Z,43
2022-11-20T10:41:01.027Z,40
2022-11-20T10:43:32.502Z,47
2022-11-20T10:46:04.275Z,51
2022-11-20T10:48:35.347Z,57
2022-11-20T10:51:07.921Z,47
2022-11-20T10:53:39.940Z,57
2022-11-20T10:56:11.222Z,48
2022-11-20T10:58:43.188Z,47
2022-11-20T11:01:14.288Z,47
2022-11-20T11:03:46.173Z,44
2022-11-20T11:06:17.131Z,46
2022-11-20T11:08:48.968Z,44
2022-11-20T11:11:27.412Z,44
2022-11-20T11:13:58.635Z,47
2022-11-20T11:16:30.001Z,43
2022-11-20T11:19:01.413Z,43
2022-11-20T11:21:33.089Z,42
2022-11-20T11:24:20.095Z,44
2022-11-20T11:26:37.461Z,40
2022-11-20T11:29:08.215Z,43
2022-11-20T11:31:39.953Z,42
2022-11-20T11:34:10.913Z,40
2022-11-20T11:36:42.032Z,44
2022-11-20T11:39:13.732Z,48
2022-11-20T11:41:44.920Z,48
2022-11-20T11:44:16.112Z,47
2022-11-20T11:46:47.783Z,44
2022-11-20T11:49:19.426Z,48
2022-11-20T11:51:51.685Z,46
2022-11-20T11:54:23.110Z,52
2022-11-20T11:56:54.728Z,54
2022-11-20T11:59:25.983Z,52
2022-11-20T12:01:57.108Z,55
2022-11-20T12:04:28.561Z,61
2022-11-20T12:07:00.408Z,52
2022-11-20T12:09:33.031Z,56
2022-11-20T12:12:07.503Z,52
2022-11-20T12:14:41.757Z,54
2022-11-20T12:17:15.315Z,50
2022-11-20T12:19:47.430Z,48
2022-11-20T12:22:21.728Z,45
2022-11-20T12:24:52.587Z,48
2022-11-20T12:27:23.465Z,54
2022-11-20T12:29:54.849Z,48
2022-11-20T12:32:25.949Z,44
2022-11-20T12:34:56.769Z,51
2022-11-20T12:37:28.384Z,43
2022-11-20T12:39:59.690Z,48
2022-11-20T12:42:31.195Z,44
2022-11-20T12:45:02.780Z,45
2022-11-20T12:47:32.960Z,48
2022-11-20T12:50:05.023Z,44
2022-11-20T12:52:36.735Z,56
2022-11-20T12:55:08.238Z,46
2022-11-20T12:57:39.148Z,58
2022-11-20T13:00:10.439Z,60
2022-11-20T13:02:41.868Z,50
2022-11-20T13:05:14.657Z,48
2022-11-20T13:07:45.974Z,52
2022-11-20T13:10:16.802Z,51
2022-11-20T13:12:47.907Z,50
2022-11-20T13:15:18.902Z,49
2022-11-20T13:17:50.223Z,47
2022-11-20T13:20:21.639Z,48
2022-11-20T13:22:53.246Z,56
2022-11-20T13:25:25.465Z,51
2022-11-20T13:27:58.602Z,52
2022-11-20T13:30:28.726Z,60
2022-11-20T13:32:59.685Z,56
2022-11-20T13:35:30.823Z,47
2022-11-20T13:38:01.843Z,48
2022-11-20T13:40:31.544Z,50
2022-11-20T13:43:02.588Z,56
2022-11-20T13:45:33.342Z,58
2022-11-20T13:48:04.300Z,48
2022-11-20T13:50:38.580Z,48
2022-11-20T13:53:09.546Z,52
2022-11-20T13:55:40.290Z,47
2022-11-20T13:58:11.241Z,57
2022-11-20T14:00:43.189Z,52
2022-11-20T14:03:14.600Z,48
2022-11-20T14:05:51.469Z,52
2022-11-20T14:08:22.139Z,49
2022-11-20T14:10:53.719Z,50
2022-11-20T14:13:29.260Z,60
2022-11-20T14:16:00.836Z,59
2022-11-20T14:18:32.199Z,55
2022-11-20T14:21:03.260Z,53
2022-11-20T14:23:34.428Z,50
2022-11-20T14:26:06.402Z,53
2022-11-20T14:28:37.790Z,44
2022-11-20T14:31:08.915Z,45
2022-11-20T14:33:39.886Z,48
2022-11-20T14:36:10.772Z,44
2022-11-20T14:38:43.550Z,46
2022-11-20T14:41:13.894Z,43
2022-11-20T14:43:44.697Z,44
2022-11-20T14:46:16.930Z,48
2022-11-20T14:48:48.189Z,48
2022-11-20T14:51:19.311Z,40
2022-11-20T14:53:50.154Z,40
2022-11-20T14:56:21.462Z,44
2022-11-20T14:58:52.766Z,44
2022-11-20T15:01:24.509Z,41
2022-11-20T15:03:55.712Z,40
2022-11-20T15:06:27.316Z,46
2022-11-20T15:09:00.528Z,48
2022-11-20T15:11:30.112Z,62
2022-11-20T15:14:01.419Z,56
2022-11-20T15:16:32.888Z,52
2022-11-20T15:19:04.030Z,55
2022-11-20T15:21:35.104Z,52
2022-11-20T15:24:06.651Z,60
2022-11-20T15:26:38.173Z,78
2022-11-20T15:29:08.155Z,51
2022-11-20T15:31:39.355Z,49
2022-11-20T15:34:10.182Z,49
2022-11-20T15:36:41.463Z,49
2022-11-20T15:39:13.482Z,56
2022-11-20T15:41:44.986Z,60
2022-11-20T15:44:16.371Z,60
2022-11-20T15:46:47.417Z,52
2022-11-20T15:49:18.341Z,40
2022-11-20T15:51:49.703Z,40
2022-11-20T15:54:21.496Z,40
2022-11-20T15:56:52.914Z,40
2022-11-20T15:59:24.090Z,36
2022-11-20T16:01:55.090Z,35
2022-11-20T16:04:26.208Z,39
2022-11-20T16:06:56.989Z,38
2022-11-20T16:09:29.441Z,41
2022-11-20T16:12:02.540Z,33
2022-11-20T16:14:33.718Z,40
2022-11-20T16:17:04.489Z,36
2022-11-20T16:19:35.553Z,37
2022-11-20T16:22:07.214Z,40
2022-11-20T16:24:38.155Z,44
2022-11-20T16:27:09.047Z,37
2022-11-20T16:29:40.368Z,40
2022-11-20T16:32:11.727Z,44
2022-11-20T16:34:42.044Z,48
2022-11-20T16:37:13.797Z,44
2022-11-20T16:39:45.841Z,50
2022-11-20T16:42:16.862Z,49
2022-11-20T16:44:46.907Z,52
2022-11-20T16:47:17.886Z,47
2022-11-20T16:49:49.518Z,48
2022-11-20T16:52:20.127Z,45
2022-11-20T16:54:51.540Z,51
2022-11-20T16:57:22.560Z,52
2022-11-20T16:59:53.757Z,52
2022-11-20T17:02:24.579Z,52
2022-11-20T17:04:55.563Z,52
2022-11-20T17:07:26.832Z,52
2022-11-20T17:09:59.347Z,50
2022-11-20T17:12:31.354Z,48
2022-11-20T17:15:02.907Z,44
2022-11-20T17:17:34.214Z,44
2022-11-20T17:20:04.437Z,40
2022-11-20T17:22:35.689Z,44
2022-11-20T17:25:07.023Z,45
2022-11-20T17:27:38.491Z,52
2022-11-20T17:30:09.417Z,48
2022-11-20T17:32:40.379Z,48
2022-11-20T17:35:11.701Z,44
2022-11-20T17:37:43.480Z,48
2022-11-20T17:40:14.601Z,50
2022-11-20T17:42:45.789Z,44
2022-11-20T17:45:16.578Z,52
2022-11-20T17:47:47.952Z,52
2022-11-20T17:50:19.128Z,45
2022-11-20T17:52:50.323Z,45
2022-11-20T17:55:21.096Z,44
2022-11-20T17:57:53.221Z,41
2022-11-20T18:00:27.231Z,61
2022-11-20T18:03:00.512Z,56
2022-11-20T18:05:30.050Z,48
2022-11-20T18:08:01.134Z,41
2022-11-20T18:10:32.123Z,47
2022-11-20T18:13:03.138Z,48
2022-11-20T18:15:34.088Z,44
2022-11-20T18:18:05.028Z,48
2022-11-20T18:20:39.732Z,49
2022-11-20T18:23:07.496Z,48
2022-11-20T18:25:38.728Z,51
2022-11-20T18:28:09.605Z,52
2022-11-20T18:30:40.514Z,60
2022-11-20T18:33:11.381Z,58
2022-11-20T18:35:42.197Z,60
2022-11-20T18:38:13.794Z,63
2022-11-20T18:40:45.047Z,64
2022-11-20T18:43:16.395Z,60
2022-11-20T18:45:47.516Z,64
2022-11-20T18:48:18.755Z,60
2022-11-20T18:50:49.902Z,56
2022-11-20T18:53:20.001Z,62
2022-11-20T18:55:50.998Z,60
2022-11-20T18:58:21.922Z,60
2022-11-20T19:00:53.469Z,60
2022-11-20T19:03:24.412Z,56
2022-11-20T19:05:55.876Z,56
2022-11-20T19:08:27.065Z,58
2022-11-20T19:10:58.366Z,54
2022-11-20T19:13:29.485Z,57
2022-11-20T19:16:00.568Z,55
2022-11-20T19:18:31.923Z,56
2022-11-20T19:21:02.829Z,59
2022-11-20T19:23:33.625Z,59
2022-11-20T19:26:04.702Z,57
2022-11-20T19:28:35.594Z,55
2022-11-20T19:31:06.491Z,52
2022-11-20T19:33:37.495Z,53
2022-11-20T19:36:08.741Z,52
2022-11-20T19:38:47.758Z,53
2022-11-20T19:41:15.440Z,51
2022-11-20T19:43:46.324Z,53
2022-11-20T19:46:17.091Z,44
2022-11-20T19:48:52.152Z,50
2022-11-20T19:51:24.053Z,48
2022-11-20T19:53:55.040Z,52
2022-11-20T19:56:26.396Z,49
2022-11-20T19:58:57.983Z,46
2022-11-20T20:01:29.127Z,48
2022-11-20T20:04:00.592Z,47
2022-11-20T20:06:31.943Z,47
2022-11-20T20:09:03.124Z,48
2022-11-20T20:11:37.602Z,44
2022-11-20T20:14:10.503Z,48
2022-11-20T20:16:42.479Z,46
2022-11-20T20:19:14.522Z,48
2022-11-20T20:21:46.730Z,53
2022-11-20T20:24:17.796Z,59
2022-11-20T20:26:49.297Z,50
2022-11-20T20:29:20.486Z,52
2022-11-20T20:31:51.895Z,52
2022-11-20T20:34:22.703Z,54
2022-11-20T20:36:52.060Z,53
2022-11-20T20:39:23.848Z,55
2022-11-20T20:41:56.982Z,54
2022-11-20T20:44:29.091Z,52
2022-11-20T20:47:00.361Z,53
2022-11-20T20:49:31.539Z,51
2022-11-20T20:52:02.515Z,52
2022-11-20T20:54:34.571Z,54
2022-11-20T20:57:05.562Z,51
2022-11-20T20:59:36.387Z,48
2022-11-20T21:02:07.548Z,50
2022-11-20T21:04:38.998Z,51
2022-11-20T21:07:10.468Z,48
2022-11-20T21:09:41.484Z,52
2022-11-20T21:12:12.448Z,49
2022-11-20T21:14:44.322Z,48
2022-11-20T21:17:15.647Z,44
2022-11-20T21:19:46.635Z,44
2022-11-20T21:22:17.589Z,44
2022-11-20T21:24:51.994Z,47
2022-11-20T21:27:23.101Z,49
2022-11-20T21:29:59.422Z,48
2022-11-20T21:32:30.746Z,44
2022-11-20T21:35:03.251Z,46
2022-11-20T21:37:40.854Z,44
2022-11-20T21:40:09.755Z,48
2022-11-20T21:42:41.352Z,52
2022-11-20T21:45:13.328Z,52
2022-11-20T21:47:44.454Z,52
2022-11-20T21:50:15.634Z,48
2022-11-20T21:52:47.037Z,51
2022-11-20T21:55:18.034Z,49
2022-11-20T21:57:49.075Z,52
2022-11-20T22:00:20.342Z,52
2022-11-20T22:02:52.378Z,51
2022-11-20T22:05:23.154Z,52
2022-11-20T22:07:55.268Z,47
2022-11-20T22:10:26.518Z,52
2022-11-20T22:12:58.165Z,45
2022-11-20T22:15:53.446Z,45
2022-11-20T22:18:00.662Z,46
2022-11-20T22:20:31.536Z,48
2022-11-20T22:23:02.895Z,48
2022-11-20T22:25:33.888Z,49
2022-11-20T22:28:04.921Z,48
2022-11-20T22:30:36.407Z,52
2022-11-20T22:33:13.212Z,52
2022-11-20T22:35:38.999Z,60
2022-11-20T22:38:09.933Z,50
2022-11-20T22:40:41.071Z,48
2022-11-20T22:43:11.928Z,51
2022-11-20T22:45:43.582Z,48
2022-11-20T22:48:14.667Z,47
2022-11-20T22:50:45.648Z,52
2022-11-20T22:53:16.651Z,49
2022-11-20T22:55:48.312Z,52
2022-11-20T22:58:19.572Z,48
2022-11-20T23:00:50.843Z,50
2022-11-20T23:03:23.073Z,52
2022-11-20T23:05:54.388Z,52
2022-11-20T23:08:25.460Z,51
2022-11-20T23:10:57.016Z,49
2022-11-20T23:13:28.316Z,52
2022-11-20T23:15:59.277Z,48
2022-11-20T23:18:30.845Z,52
2022-11-20T23:21:01.597Z,46
2022-11-20T23:23:32.272Z,48
2022-11-20T23:26:04.512Z,52
2022-11-20T23:28:35.118Z,52
2022-11-20T23:31:05.271Z,52
2022-11-20T23:33:36.643Z,45
2022-11-20T23:36:06.787Z,44
2022-11-20T23:38:37.879Z,45
2022-11-20T23:41:08.750Z,47
2022-11-20T23:43:39.833Z,44
2022-11-20T23:46:13.870Z,52
2022-11-20T23:48:41.426Z,46
2022-11-20T23:51:11.599Z,45
2022-11-20T23:53:42.132Z,48
2022-11-20T23:56:14.180Z,44
2022-11-20T23:58:44.620Z,48
